sensor_id;sensor_type;location;lat;lon;timestamp;temperature;humidity
11934;DHT22;6026;48.784;9.198;2023-11-18T00:00:51;5.70;99.90
11934;DHT22;6026;48.784;9.198;2023-11-18T00:03:17;5.60;99.90
11934;DHT22;6026;48.784;9.198;2023-11-18T00:05:42;5.70;99.90
11934;DHT22;6026;48.784;9.198;2023-11-18T00:08:08;5.60;99.90
11934;DHT22;6026;48.784;9.198;2023-11-18T00:10:33;5.70;99.90
11934;DHT22;6026;48.784;9.198;2023-11-18T00:12:59;5.70;99.90
11934;DHT22;6026;48.784;9.198;2023-11-18T00:15:27;5.70;99.90
11934;DHT22;6026;48.784;9.198;2023-11-18T00:17:52;5.80;99.90
11934;DHT22;6026;48.784;9.198;2023-11-18T00:20:18;5.80;99.90
11934;DHT22;6026;48.784;9.198;2023-11-18T00:22:45;5.80;99.90
11934;DHT22;6026;48.784;9.198;2023-11-18T00:25:11;5.80;99.90
11934;DHT22;6026;48.784;9.198;2023-11-18T00:27:39;5.80;99.90
11934;DHT22;6026;48.784;9.198;2023-11-18T00:30:06;5.70;99.90
11934;DHT22;6026;48.784;9.198;2023-11-18T00:32:33;5.70;99.90
11934;DHT22;6026;48.784;9.198;2023-11-18T00:34:59;5.70;99.90
11934;DHT22;6026;48.784;9.198;2023-11-18T00:37:26;5.60;99.90
11934;DHT22;6026;48.784;9.198;2023-11-18T00:39:52;5.60;99.90
11934;DHT22;6026;48.784;9.198;2023-11-18T00:42:18;5.50;99.90
11934;DHT22;6026;48.784;9.198;2023-11-18T00:44:43;5.60;99.90
11934;DHT22;6026;48.784;9.198;2023-11-18T00:47:09;5.60;99.90
11934;DHT22;6026;48.784;9.198;2023-11-18T00:49:34;5.60;99.90
11934;DHT22;6026;48.784;9.198;2023-11-18T00:52:00;5.60;99.90
11934;DHT22;6026;48.784;9.198;2023-11-18T00:54:25;5.70;99.90
11934;DHT22;6026;48.784;9.198;2023-11-18T00:56:52;5.70;99.90
11934;DHT22;6026;48.784;9.198;2023-11-18T00:59:17;5.70;99.90
11934;DHT22;6026;48.784;9.198;2023-11-18T01:01:43;5.70;99.90
11934;DHT22;6026;48.784;9.198;2023-11-18T01:04:08;5.60;99.90
11934;DHT22;6026;48.784;9.198;2023-11-18T01:06:34;5.70;99.90
11934;DHT22;6026;48.784;9.198;2023-11-18T01:09:00;5.70;99.90
11934;DHT22;6026;48.784;9.198;2023-11-18T01:11:26;5.60;99.90
11934;DHT22;6026;48.784;9.198;2023-11-18T01:13:52;5.60;99.90
11934;DHT22;6026;48.784;9.198;2023-11-18T01:16:19;5.60;99.90
11934;DHT22;6026;48.784;9.198;2023-11-18T01:18:45;5.60;99.90
11934;DHT22;6026;48.784;9.198;2023-11-18T01:21:11;5.60;99.90
11934;DHT22;6026;48.784;9.198;2023-11-18T01:23:37;5.70;99.90
11934;DHT22;6026;48.784;9.198;2023-11-18T01:26:07;5.70;99.90
11934;DHT22;6026;48.784;9.198;2023-11-18T01:28:36;5.70;99.90
11934;DHT22;6026;48.784;9.198;2023-11-18T01:31:04;5.70;99.90
11934;DHT22;6026;48.784;9.198;2023-11-18T01:33:30;5.80;99.90
11934;DHT22;6026;48.784;9.198;2023-11-18T01:35:58;5.80;99.90
11934;DHT22;6026;48.784;9.198;2023-11-18T01:38:23;5.80;99.90
11934;DHT22;6026;48.784;9.198;2023-11-18T01:40:50;5.70;99.90
11934;DHT22;6026;48.784;9.198;2023-11-18T01:43:15;5.80;99.90
11934;DHT22;6026;48.784;9.198;2023-11-18T01:45:41;5.70;99.90
11934;DHT22;6026;48.784;9.198;2023-11-18T01:48:07;5.70;99.90
11934;DHT22;6026;48.784;9.198;2023-11-18T01:50:36;5.70;99.90
11934;DHT22;6026;48.784;9.198;2023-11-18T01:53:03;5.70;99.90
11934;DHT22;6026;48.784;9.198;2023-11-18T01:55:28;5.70;99.90
11934;DHT22;6026;48.784;9.198;2023-11-18T01:57:54;5.70;99.90
11934;DHT22;6026;48.784;9.198;2023-11-18T02:00:22;5.70;99.90
11934;DHT22;6026;48.784;9.198;2023-11-18T02:02:48;5.60;99.90
11934;DHT22;6026;48.784;9.198;2023-11-18T02:05:15;5.70;99.90
11934;DHT22;6026;48.784;9.198;2023-11-18T02:07:42;5.70;99.90
11934;DHT22;6026;48.784;9.198;2023-11-18T02:10:09;5.60;99.90
11934;DHT22;6026;48.784;9.198;2023-11-18T02:12:46;5.60;99.90
11934;DHT22;6026;48.784;9.198;2023-11-18T02:15:14;5.60;99.90
11934;DHT22;6026;48.784;9.198;2023-11-18T02:17:41;5.60;99.90
11934;DHT22;6026;48.784;9.198;2023-11-18T02:20:08;5.60;99.90
11934;DHT22;6026;48.784;9.198;2023-11-18T02:22:42;5.60;99.90
11934;DHT22;6026;48.784;9.198;2023-11-18T02:25:09;5.60;99.90
11934;DHT22;6026;48.784;9.198;2023-11-18T02:27:37;5.60;99.90
11934;DHT22;6026;48.784;9.198;2023-11-18T02:30:03;5.60;99.90
11934;DHT22;6026;48.784;9.198;2023-11-18T02:35:30;5.60;99.90
11934;DHT22;6026;48.784;9.198;2023-11-18T02:38:00;5.60;99.90
11934;DHT22;6026;48.784;9.198;2023-11-18T02:40:37;5.50;99.90
11934;DHT22;6026;48.784;9.198;2023-11-18T02:43:04;5.50;99.90
11934;DHT22;6026;48.784;9.198;2023-11-18T02:45:31;5.50;99.90
11934;DHT22;6026;48.784;9.198;2023-11-18T02:47:57;5.50;99.90
11934;DHT22;6026;48.784;9.198;2023-11-18T02:50:24;5.50;99.90
11934;DHT22;6026;48.784;9.198;2023-11-18T02:52:50;5.50;99.90
11934;DHT22;6026;48.784;9.198;2023-11-18T02:55:15;5.50;99.90
11934;DHT22;6026;48.784;9.198;2023-11-18T02:57:41;5.50;99.90
11934;DHT22;6026;48.784;9.198;2023-11-18T03:00:07;5.50;99.90
11934;DHT22;6026;48.784;9.198;2023-11-18T03:02:37;5.40;99.90
11934;DHT22;6026;48.784;9.198;2023-11-18T03:05:06;5.40;99.90
11934;DHT22;6026;48.784;9.198;2023-11-18T03:07:32;5.40;99.90
11934;DHT22;6026;48.784;9.198;2023-11-18T03:09:58;5.40;99.90
11934;DHT22;6026;48.784;9.198;2023-11-18T03:12:25;5.40;99.90
11934;DHT22;6026;48.784;9.198;2023-11-18T03:14:54;5.30;99.90
11934;DHT22;6026;48.784;9.198;2023-11-18T03:17:19;5.30;99.90
11934;DHT22;6026;48.784;9.198;2023-11-18T03:19:45;5.30;99.90
11934;DHT22;6026;48.784;9.198;2023-11-18T03:22:11;5.20;99.90
11934;DHT22;6026;48.784;9.198;2023-11-18T03:24:38;5.20;99.90
11934;DHT22;6026;48.784;9.198;2023-11-18T03:27:04;5.10;99.90
11934;DHT22;6026;48.784;9.198;2023-11-18T03:29:30;5.00;99.90
11934;DHT22;6026;48.784;9.198;2023-11-18T03:31:55;5.00;99.90
11934;DHT22;6026;48.784;9.198;2023-11-18T03:34:21;5.00;99.90
11934;DHT22;6026;48.784;9.198;2023-11-18T03:36:47;5.00;99.90
11934;DHT22;6026;48.784;9.198;2023-11-18T03:39:13;5.00;99.90
11934;DHT22;6026;48.784;9.198;2023-11-18T03:41:43;5.00;99.90
11934;DHT22;6026;48.784;9.198;2023-11-18T03:44:13;5.00;99.90
11934;DHT22;6026;48.784;9.198;2023-11-18T03:46:38;5.00;99.90
11934;DHT22;6026;48.784;9.198;2023-11-18T03:49:04;5.10;99.90
11934;DHT22;6026;48.784;9.198;2023-11-18T03:51:29;5.10;99.90
11934;DHT22;6026;48.784;9.198;2023-11-18T03:53:55;5.10;99.90
11934;DHT22;6026;48.784;9.198;2023-11-18T03:56:21;5.10;99.90
11934;DHT22;6026;48.784;9.198;2023-11-18T03:58:47;5.10;99.90
11934;DHT22;6026;48.784;9.198;2023-11-18T04:01:23;5.10;99.90
11934;DHT22;6026;48.784;9.198;2023-11-18T04:03:49;5.10;99.90
11934;DHT22;6026;48.784;9.198;2023-11-18T04:06:16;5.10;99.90
11934;DHT22;6026;48.784;9.198;2023-11-18T04:08:46;5.20;99.90
11934;DHT22;6026;48.784;9.198;2023-11-18T04:11:12;5.10;99.90
11934;DHT22;6026;48.784;9.198;2023-11-18T04:13:42;5.10;99.90
11934;DHT22;6026;48.784;9.198;2023-11-18T04:16:12;5.10;99.90
11934;DHT22;6026;48.784;9.198;2023-11-18T04:18:41;5.10;99.90
11934;DHT22;6026;48.784;9.198;2023-11-18T04:21:11;5.00;99.90
11934;DHT22;6026;48.784;9.198;2023-11-18T04:23:42;5.00;99.90
11934;DHT22;6026;48.784;9.198;2023-11-18T04:26:08;5.00;99.90
11934;DHT22;6026;48.784;9.198;2023-11-18T04:28:35;5.00;99.90
11934;DHT22;6026;48.784;9.198;2023-11-18T04:31:00;5.00;99.90
11934;DHT22;6026;48.784;9.198;2023-11-18T04:33:26;4.90;99.90
11934;DHT22;6026;48.784;9.198;2023-11-18T04:35:52;4.90;99.90
11934;DHT22;6026;48.784;9.198;2023-11-18T04:38:18;4.80;99.90
11934;DHT22;6026;48.784;9.198;2023-11-18T04:40:44;4.80;99.90
11934;DHT22;6026;48.784;9.198;2023-11-18T04:43:11;4.80;99.90
11934;DHT22;6026;48.784;9.198;2023-11-18T04:45:37;4.70;99.90
11934;DHT22;6026;48.784;9.198;2023-11-18T04:48:03;4.70;99.90
11934;DHT22;6026;48.784;9.198;2023-11-18T04:50:30;4.70;99.90
11934;DHT22;6026;48.784;9.198;2023-11-18T04:52:56;4.70;99.90
11934;DHT22;6026;48.784;9.198;2023-11-18T04:55:22;4.70;99.90
11934;DHT22;6026;48.784;9.198;2023-11-18T04:57:47;4.60;99.90
11934;DHT22;6026;48.784;9.198;2023-11-18T05:00:13;4.60;99.90
11934;DHT22;6026;48.784;9.198;2023-11-18T05:02:42;4.60;99.90
11934;DHT22;6026;48.784;9.198;2023-11-18T05:05:08;4.50;99.90
11934;DHT22;6026;48.784;9.198;2023-11-18T05:07:34;4.50;99.90
11934;DHT22;6026;48.784;9.198;2023-11-18T05:10:02;4.50;99.90
11934;DHT22;6026;48.784;9.198;2023-11-18T05:12:28;4.50;99.90
11934;DHT22;6026;48.784;9.198;2023-11-18T05:14:55;4.50;99.90
11934;DHT22;6026;48.784;9.198;2023-11-18T05:17:23;4.50;99.90
11934;DHT22;6026;48.784;9.198;2023-11-18T05:19:48;4.50;99.90
11934;DHT22;6026;48.784;9.198;2023-11-18T05:22:14;4.50;99.90
11934;DHT22;6026;48.784;9.198;2023-11-18T05:24:39;4.50;99.90
11934;DHT22;6026;48.784;9.198;2023-11-18T05:27:05;4.40;99.90
11934;DHT22;6026;48.784;9.198;2023-11-18T05:29:32;4.40;99.90
11934;DHT22;6026;48.784;9.198;2023-11-18T05:31:57;4.40;99.90
11934;DHT22;6026;48.784;9.198;2023-11-18T05:34:23;4.40;99.90
11934;DHT22;6026;48.784;9.198;2023-11-18T05:36:49;4.30;99.90
11934;DHT22;6026;48.784;9.198;2023-11-18T05:39:20;4.30;99.90
11934;DHT22;6026;48.784;9.198;2023-11-18T05:41:45;4.30;99.90
11934;DHT22;6026;48.784;9.198;2023-11-18T05:44:15;4.30;99.90
11934;DHT22;6026;48.784;9.198;2023-11-18T05:46:47;4.30;99.90
11934;DHT22;6026;48.784;9.198;2023-11-18T05:49:13;4.20;99.90
11934;DHT22;6026;48.784;9.198;2023-11-18T05:51:39;4.30;99.90
11934;DHT22;6026;48.784;9.198;2023-11-18T05:54:08;4.20;99.90
11934;DHT22;6026;48.784;9.198;2023-11-18T05:56:33;4.20;99.90
11934;DHT22;6026;48.784;9.198;2023-11-18T05:58:59;4.20;99.90
11934;DHT22;6026;48.784;9.198;2023-11-18T06:01:25;4.10;99.90
11934;DHT22;6026;48.784;9.198;2023-11-18T06:03:53;4.10;99.90
11934;DHT22;6026;48.784;9.198;2023-11-18T06:06:19;4.10;99.90
11934;DHT22;6026;48.784;9.198;2023-11-18T06:08:46;4.10;99.90
11934;DHT22;6026;48.784;9.198;2023-11-18T06:11:14;4.10;99.90
11934;DHT22;6026;48.784;9.198;2023-11-18T06:13:49;4.00;99.90
11934;DHT22;6026;48.784;9.198;2023-11-18T06:16:20;4.00;99.90
11934;DHT22;6026;48.784;9.198;2023-11-18T06:18:47;3.90;99.90
11934;DHT22;6026;48.784;9.198;2023-11-18T06:21:14;3.90;99.90
11934;DHT22;6026;48.784;9.198;2023-11-18T06:23:41;3.90;99.90
11934;DHT22;6026;48.784;9.198;2023-11-18T06:26:07;3.90;99.90
11934;DHT22;6026;48.784;9.198;2023-11-18T06:28:36;3.90;99.90
11934;DHT22;6026;48.784;9.198;2023-11-18T06:31:01;3.90;99.90
11934;DHT22;6026;48.784;9.198;2023-11-18T06:33:27;3.90;99.90
11934;DHT22;6026;48.784;9.198;2023-11-18T06:35:53;3.90;99.90
11934;DHT22;6026;48.784;9.198;2023-11-18T06:38:20;3.90;99.90
11934;DHT22;6026;48.784;9.198;2023-11-18T06:40:45;3.90;99.90
11934;DHT22;6026;48.784;9.198;2023-11-18T06:43:11;3.90;99.90
11934;DHT22;6026;48.784;9.198;2023-11-18T06:45:41;3.90;99.90
11934;DHT22;6026;48.784;9.198;2023-11-18T06:48:08;3.90;99.90
11934;DHT22;6026;48.784;9.198;2023-11-18T06:50:34;3.90;99.90
11934;DHT22;6026;48.784;9.198;2023-11-18T06:53:00;4.00;99.90
11934;DHT22;6026;48.784;9.198;2023-11-18T06:55:26;4.00;99.90
11934;DHT22;6026;48.784;9.198;2023-11-18T06:57:52;4.10;99.90
11934;DHT22;6026;48.784;9.198;2023-11-18T07:00:19;4.00;99.90
11934;DHT22;6026;48.784;9.198;2023-11-18T07:02:47;4.00;99.90
11934;DHT22;6026;48.784;9.198;2023-11-18T07:05:12;4.00;99.90
11934;DHT22;6026;48.784;9.198;2023-11-18T07:07:40;4.00;99.90
11934;DHT22;6026;48.784;9.198;2023-11-18T07:10:06;4.00;99.90
11934;DHT22;6026;48.784;9.198;2023-11-18T07:12:33;4.10;99.90
11934;DHT22;6026;48.784;9.198;2023-11-18T07:15:04;4.20;99.90
11934;DHT22;6026;48.784;9.198;2023-11-18T07:17:30;4.20;99.90
11934;DHT22;6026;48.784;9.198;2023-11-18T07:19:55;4.30;99.90
11934;DHT22;6026;48.784;9.198;2023-11-18T07:22:21;4.40;99.90
11934;DHT22;6026;48.784;9.198;2023-11-18T07:24:46;4.40;99.90
11934;DHT22;6026;48.784;9.198;2023-11-18T07:27:12;4.50;99.90
11934;DHT22;6026;48.784;9.198;2023-11-18T07:29:38;4.60;99.90
11934;DHT22;6026;48.784;9.198;2023-11-18T07:32:04;4.70;99.90
11934;DHT22;6026;48.784;9.198;2023-11-18T07:34:31;4.80;99.90
11934;DHT22;6026;48.784;9.198;2023-11-18T07:36:58;4.80;99.90
11934;DHT22;6026;48.784;9.198;2023-11-18T07:39:24;4.90;99.90
11934;DHT22;6026;48.784;9.198;2023-11-18T07:41:50;4.90;99.90
11934;DHT22;6026;48.784;9.198;2023-11-18T07:44:15;5.00;99.90
11934;DHT22;6026;48.784;9.198;2023-11-18T07:46:41;5.00;99.90
11934;DHT22;6026;48.784;9.198;2023-11-18T07:49:08;5.10;99.90
11934;DHT22;6026;48.784;9.198;2023-11-18T07:51:34;5.20;99.90
11934;DHT22;6026;48.784;9.198;2023-11-18T07:54:00;5.30;99.90
11934;DHT22;6026;48.784;9.198;2023-11-18T07:56:25;5.40;99.90
11934;DHT22;6026;48.784;9.198;2023-11-18T07:58:52;5.40;99.90
11934;DHT22;6026;48.784;9.198;2023-11-18T08:01:20;5.50;99.90
11934;DHT22;6026;48.784;9.198;2023-11-18T08:03:46;5.60;99.90
11934;DHT22;6026;48.784;9.198;2023-11-18T08:06:13;5.70;99.90
11934;DHT22;6026;48.784;9.198;2023-11-18T08:08:38;5.90;99.90
11934;DHT22;6026;48.784;9.198;2023-11-18T08:11:10;6.00;99.90
11934;DHT22;6026;48.784;9.198;2023-11-18T08:13:36;6.10;99.90
11934;DHT22;6026;48.784;9.198;2023-11-18T08:16:01;6.20;99.90
11934;DHT22;6026;48.784;9.198;2023-11-18T08:18:27;6.30;99.90
11934;DHT22;6026;48.784;9.198;2023-11-18T08:20:54;6.40;99.90
11934;DHT22;6026;48.784;9.198;2023-11-18T08:23:20;6.40;99.90
11934;DHT22;6026;48.784;9.198;2023-11-18T08:25:46;6.40;99.90
11934;DHT22;6026;48.784;9.198;2023-11-18T08:28:12;6.40;99.90
11934;DHT22;6026;48.784;9.198;2023-11-18T08:30:39;6.40;99.90
11934;DHT22;6026;48.784;9.198;2023-11-18T08:33:05;6.40;99.90
11934;DHT22;6026;48.784;9.198;2023-11-18T08:35:34;6.30;99.90
11934;DHT22;6026;48.784;9.198;2023-11-18T08:38:00;6.40;99.90
11934;DHT22;6026;48.784;9.198;2023-11-18T08:40:26;6.40;99.90
11934;DHT22;6026;48.784;9.198;2023-11-18T08:42:53;6.30;99.90
11934;DHT22;6026;48.784;9.198;2023-11-18T08:45:22;6.20;99.90
11934;DHT22;6026;48.784;9.198;2023-11-18T08:47:52;6.20;99.90
11934;DHT22;6026;48.784;9.198;2023-11-18T08:50:18;6.20;99.90
11934;DHT22;6026;48.784;9.198;2023-11-18T08:52:47;6.10;99.90
11934;DHT22;6026;48.784;9.198;2023-11-18T08:55:13;6.20;99.90
11934;DHT22;6026;48.784;9.198;2023-11-18T08:57:47;6.30;99.90
11934;DHT22;6026;48.784;9.198;2023-11-18T09:00:28;6.40;99.90
11934;DHT22;6026;48.784;9.198;2023-11-18T09:03:46;6.50;99.90
11934;DHT22;6026;48.784;9.198;2023-11-18T09:06:09;6.50;99.90
11934;DHT22;6026;48.784;9.198;2023-11-18T09:08:51;6.60;99.90
11934;DHT22;6026;48.784;9.198;2023-11-18T09:11:21;6.80;99.90
11934;DHT22;6026;48.784;9.198;2023-11-18T09:13:48;6.90;99.90
11934;DHT22;6026;48.784;9.198;2023-11-18T09:16:16;7.10;99.90
11934;DHT22;6026;48.784;9.198;2023-11-18T09:18:43;7.20;99.90
11934;DHT22;6026;48.784;9.198;2023-11-18T09:21:11;7.30;99.90
11934;DHT22;6026;48.784;9.198;2023-11-18T09:23:41;7.30;99.90
11934;DHT22;6026;48.784;9.198;2023-11-18T09:26:07;7.30;99.90
11934;DHT22;6026;48.784;9.198;2023-11-18T09:28:34;7.30;99.90
11934;DHT22;6026;48.784;9.198;2023-11-18T09:31:01;7.50;99.90
11934;DHT22;6026;48.784;9.198;2023-11-18T09:33:33;7.70;99.90
11934;DHT22;6026;48.784;9.198;2023-11-18T09:38:32;7.70;99.90
11934;DHT22;6026;48.784;9.198;2023-11-18T09:41:01;7.80;99.90
11934;DHT22;6026;48.784;9.198;2023-11-18T09:43:31;7.90;99.90
11934;DHT22;6026;48.784;9.198;2023-11-18T09:46:15;7.90;99.90
11934;DHT22;6026;48.784;9.198;2023-11-18T09:48:48;7.80;99.90
11934;DHT22;6026;48.784;9.198;2023-11-18T09:51:38;7.70;99.90
11934;DHT22;6026;48.784;9.198;2023-11-18T09:54:33;7.80;99.90
11934;DHT22;6026;48.784;9.198;2023-11-18T09:59:49;7.70;99.90
11934;DHT22;6026;48.784;9.198;2023-11-18T10:02:22;7.70;99.90
11934;DHT22;6026;48.784;9.198;2023-11-18T10:04:48;7.80;99.90
11934;DHT22;6026;48.784;9.198;2023-11-18T10:07:17;8.00;99.90
11934;DHT22;6026;48.784;9.198;2023-11-18T10:09:44;8.00;99.90
11934;DHT22;6026;48.784;9.198;2023-11-18T10:12:11;8.00;99.90
11934;DHT22;6026;48.784;9.198;2023-11-18T10:14:41;8.20;99.90
11934;DHT22;6026;48.784;9.198;2023-11-18T10:17:09;8.20;99.90
11934;DHT22;6026;48.784;9.198;2023-11-18T10:19:52;8.40;99.90
11934;DHT22;6026;48.784;9.198;2023-11-18T10:22:28;8.60;99.90
11934;DHT22;6026;48.784;9.198;2023-11-18T10:24:55;8.70;99.90
11934;DHT22;6026;48.784;9.198;2023-11-18T10:27:23;8.70;99.90
11934;DHT22;6026;48.784;9.198;2023-11-18T10:29:50;8.80;99.90
11934;DHT22;6026;48.784;9.198;2023-11-18T10:32:17;8.90;99.90
11934;DHT22;6026;48.784;9.198;2023-11-18T10:34:47;9.00;99.90
11934;DHT22;6026;48.784;9.198;2023-11-18T10:37:14;9.00;99.90
11934;DHT22;6026;48.784;9.198;2023-11-18T10:39:46;9.10;99.90
11934;DHT22;6026;48.784;9.198;2023-11-18T10:42:12;9.20;99.90
11934;DHT22;6026;48.784;9.198;2023-11-18T10:44:40;9.20;99.90
11934;DHT22;6026;48.784;9.198;2023-11-18T10:47:19;9.20;99.90
11934;DHT22;6026;48.784;9.198;2023-11-18T10:49:46;9.30;99.90
11934;DHT22;6026;48.784;9.198;2023-11-18T10:52:12;9.20;99.90
11934;DHT22;6026;48.784;9.198;2023-11-18T10:54:50;9.30;99.90
11934;DHT22;6026;48.784;9.198;2023-11-18T10:57:20;9.00;99.90
11934;DHT22;6026;48.784;9.198;2023-11-18T10:59:58;9.10;99.90
11934;DHT22;6026;48.784;9.198;2023-11-18T11:02:24;9.10;99.90
11934;DHT22;6026;48.784;9.198;2023-11-18T11:04:50;9.10;99.90
11934;DHT22;6026;48.784;9.198;2023-11-18T11:07:17;9.10;99.90
11934;DHT22;6026;48.784;9.198;2023-11-18T11:09:44;8.90;99.90
11934;DHT22;6026;48.784;9.198;2023-11-18T11:12:11;8.90;99.90
11934;DHT22;6026;48.784;9.198;2023-11-18T11:15:08;8.90;99.90
11934;DHT22;6026;48.784;9.198;2023-11-18T11:17:41;8.90;99.90
11934;DHT22;6026;48.784;9.198;2023-11-18T11:20:13;9.00;99.90
11934;DHT22;6026;48.784;9.198;2023-11-18T11:26:07;9.20;99.90
11934;DHT22;6026;48.784;9.198;2023-11-18T11:31:35;9.40;99.90
11934;DHT22;6026;48.784;9.198;2023-11-18T11:34:05;9.40;99.90
11934;DHT22;6026;48.784;9.198;2023-11-18T11:36:44;9.40;99.90
11934;DHT22;6026;48.784;9.198;2023-11-18T11:39:13;9.50;99.90
11934;DHT22;6026;48.784;9.198;2023-11-18T11:41:46;9.30;99.90
11934;DHT22;6026;48.784;9.198;2023-11-18T11:44:13;9.20;99.90
11934;DHT22;6026;48.784;9.198;2023-11-18T11:46:40;9.30;99.90
11934;DHT22;6026;48.784;9.198;2023-11-18T11:49:08;9.20;99.90
11934;DHT22;6026;48.784;9.198;2023-11-18T11:52:09;9.20;99.90
11934;DHT22;6026;48.784;9.198;2023-11-18T11:54:45;9.20;99.90
11934;DHT22;6026;48.784;9.198;2023-11-18T11:57:15;9.30;99.90
11934;DHT22;6026;48.784;9.198;2023-11-18T12:02:13;9.00;99.90
11934;DHT22;6026;48.784;9.198;2023-11-18T12:04:44;9.00;99.90
11934;DHT22;6026;48.784;9.198;2023-11-18T12:07:10;8.90;99.90
11934;DHT22;6026;48.784;9.198;2023-11-18T12:09:36;8.90;99.90
11934;DHT22;6026;48.784;9.198;2023-11-18T12:12:06;9.00;99.90
11934;DHT22;6026;48.784;9.198;2023-11-18T12:14:57;9.00;99.90
11934;DHT22;6026;48.784;9.198;2023-11-18T12:17:26;9.10;99.90
11934;DHT22;6026;48.784;9.198;2023-11-18T12:19:57;9.10;99.90
11934;DHT22;6026;48.784;9.198;2023-11-18T12:23:04;9.10;99.90
11934;DHT22;6026;48.784;9.198;2023-11-18T12:25:32;9.10;99.90
11934;DHT22;6026;48.784;9.198;2023-11-18T12:27:58;9.00;99.90
11934;DHT22;6026;48.784;9.198;2023-11-18T12:33:05;9.00;99.90
11934;DHT22;6026;48.784;9.198;2023-11-18T12:41:01;8.80;99.90
11934;DHT22;6026;48.784;9.198;2023-11-18T12:46:51;8.90;99.90
11934;DHT22;6026;48.784;9.198;2023-11-18T12:49:24;8.80;99.90
11934;DHT22;6026;48.784;9.198;2023-11-18T12:51:55;8.80;99.90
11934;DHT22;6026;48.784;9.198;2023-11-18T12:54:23;8.80;99.90
11934;DHT22;6026;48.784;9.198;2023-11-18T12:56:54;8.80;99.90
11934;DHT22;6026;48.784;9.198;2023-11-18T12:59:20;8.80;99.90
11934;DHT22;6026;48.784;9.198;2023-11-18T13:01:50;8.80;99.90
11934;DHT22;6026;48.784;9.198;2023-11-18T13:04:32;8.80;99.90
11934;DHT22;6026;48.784;9.198;2023-11-18T13:06:59;8.70;99.90
11934;DHT22;6026;48.784;9.198;2023-11-18T13:09:26;8.70;99.90
11934;DHT22;6026;48.784;9.198;2023-11-18T13:11:57;8.70;99.90
11934;DHT22;6026;48.784;9.198;2023-11-18T13:14:25;8.70;99.90
11934;DHT22;6026;48.784;9.198;2023-11-18T13:16:54;8.70;99.90
11934;DHT22;6026;48.784;9.198;2023-11-18T13:19:28;8.70;99.90
11934;DHT22;6026;48.784;9.198;2023-11-18T13:21:59;8.80;99.90
11934;DHT22;6026;48.784;9.198;2023-11-18T13:24:26;8.70;99.90
11934;DHT22;6026;48.784;9.198;2023-11-18T13:26:54;8.70;99.90
11934;DHT22;6026;48.784;9.198;2023-11-18T13:29:21;8.70;99.90
11934;DHT22;6026;48.784;9.198;2023-11-18T13:31:47;8.80;99.90
11934;DHT22;6026;48.784;9.198;2023-11-18T13:34:13;8.70;99.90
11934;DHT22;6026;48.784;9.198;2023-11-18T13:36:40;8.70;99.90
11934;DHT22;6026;48.784;9.198;2023-11-18T13:39:14;8.70;99.90
11934;DHT22;6026;48.784;9.198;2023-11-18T13:41:42;8.60;99.90
11934;DHT22;6026;48.784;9.198;2023-11-18T13:44:08;8.60;99.90
11934;DHT22;6026;48.784;9.198;2023-11-18T13:46:38;8.60;99.90
11934;DHT22;6026;48.784;9.198;2023-11-18T13:49:06;8.60;99.90
11934;DHT22;6026;48.784;9.198;2023-11-18T13:51:32;8.60;99.90
11934;DHT22;6026;48.784;9.198;2023-11-18T13:54:00;8.50;99.90
11934;DHT22;6026;48.784;9.198;2023-11-18T13:56:28;8.50;99.90
11934;DHT22;6026;48.784;9.198;2023-11-18T13:58:53;8.50;99.90
11934;DHT22;6026;48.784;9.198;2023-11-18T14:01:20;8.50;99.90
11934;DHT22;6026;48.784;9.198;2023-11-18T14:03:46;8.50;99.90
11934;DHT22;6026;48.784;9.198;2023-11-18T14:06:14;8.60;99.90
11934;DHT22;6026;48.784;9.198;2023-11-18T14:08:43;8.60;99.90
11934;DHT22;6026;48.784;9.198;2023-11-18T14:11:10;8.60;99.90
11934;DHT22;6026;48.784;9.198;2023-11-18T14:13:36;8.60;99.90
11934;DHT22;6026;48.784;9.198;2023-11-18T14:16:02;8.60;99.90
11934;DHT22;6026;48.784;9.198;2023-11-18T14:18:29;8.60;99.90
11934;DHT22;6026;48.784;9.198;2023-11-18T14:20:55;8.60;99.90
11934;DHT22;6026;48.784;9.198;2023-11-18T14:23:21;8.60;99.90
11934;DHT22;6026;48.784;9.198;2023-11-18T14:25:47;8.60;99.90
11934;DHT22;6026;48.784;9.198;2023-11-18T14:28:13;8.50;99.90
11934;DHT22;6026;48.784;9.198;2023-11-18T14:30:39;8.40;99.90
11934;DHT22;6026;48.784;9.198;2023-11-18T14:33:05;8.30;99.90
11934;DHT22;6026;48.784;9.198;2023-11-18T14:35:32;8.30;99.90
11934;DHT22;6026;48.784;9.198;2023-11-18T14:37:59;8.30;99.90
11934;DHT22;6026;48.784;9.198;2023-11-18T14:40:26;8.40;99.90
11934;DHT22;6026;48.784;9.198;2023-11-18T14:42:53;8.30;99.90
11934;DHT22;6026;48.784;9.198;2023-11-18T14:45:19;8.30;99.90
11934;DHT22;6026;48.784;9.198;2023-11-18T14:47:45;8.30;99.90
11934;DHT22;6026;48.784;9.198;2023-11-18T14:50:11;8.30;99.90
11934;DHT22;6026;48.784;9.198;2023-11-18T14:52:52;8.30;99.90
11934;DHT22;6026;48.784;9.198;2023-11-18T14:55:27;8.30;99.90
11934;DHT22;6026;48.784;9.198;2023-11-18T14:57:53;8.30;99.90
11934;DHT22;6026;48.784;9.198;2023-11-18T15:00:20;8.20;99.90
11934;DHT22;6026;48.784;9.198;2023-11-18T15:02:52;8.30;99.90
11934;DHT22;6026;48.784;9.198;2023-11-18T15:05:19;8.20;99.90
11934;DHT22;6026;48.784;9.198;2023-11-18T15:10:19;8.20;99.90
11934;DHT22;6026;48.784;9.198;2023-11-18T15:12:54;8.20;99.90
11934;DHT22;6026;48.784;9.198;2023-11-18T15:15:23;8.20;99.90
11934;DHT22;6026;48.784;9.198;2023-11-18T15:17:56;8.20;99.90
11934;DHT22;6026;48.784;9.198;2023-11-18T15:20:23;8.10;99.90
11934;DHT22;6026;48.784;9.198;2023-11-18T15:22:49;8.10;99.90
11934;DHT22;6026;48.784;9.198;2023-11-18T15:25:14;8.10;99.90
11934;DHT22;6026;48.784;9.198;2023-11-18T15:27:43;8.10;99.90
11934;DHT22;6026;48.784;9.198;2023-11-18T15:30:11;8.10;99.90
11934;DHT22;6026;48.784;9.198;2023-11-18T15:32:46;8.10;99.90
11934;DHT22;6026;48.784;9.198;2023-11-18T15:35:13;8.10;99.90
11934;DHT22;6026;48.784;9.198;2023-11-18T15:37:42;8.00;99.90
11934;DHT22;6026;48.784;9.198;2023-11-18T15:40:12;8.00;99.90
11934;DHT22;6026;48.784;9.198;2023-11-18T15:42:43;8.00;99.90
11934;DHT22;6026;48.784;9.198;2023-11-18T15:45:10;8.00;99.90
11934;DHT22;6026;48.784;9.198;2023-11-18T15:47:40;8.00;99.90
11934;DHT22;6026;48.784;9.198;2023-11-18T15:50:09;8.00;99.90
11934;DHT22;6026;48.784;9.198;2023-11-18T15:52:44;8.00;99.90
11934;DHT22;6026;48.784;9.198;2023-11-18T15:55:10;7.90;99.90
11934;DHT22;6026;48.784;9.198;2023-11-18T15:57:46;7.90;99.90
11934;DHT22;6026;48.784;9.198;2023-11-18T16:00:22;7.90;99.90
11934;DHT22;6026;48.784;9.198;2023-11-18T16:02:54;7.90;99.90
11934;DHT22;6026;48.784;9.198;2023-11-18T16:05:22;7.90;99.90
11934;DHT22;6026;48.784;9.198;2023-11-18T16:07:49;7.90;99.90
11934;DHT22;6026;48.784;9.198;2023-11-18T16:10:20;7.90;99.90
11934;DHT22;6026;48.784;9.198;2023-11-18T16:12:50;7.90;99.90
11934;DHT22;6026;48.784;9.198;2023-11-18T16:15:20;7.90;99.90
11934;DHT22;6026;48.784;9.198;2023-11-18T16:17:47;7.90;99.90
11934;DHT22;6026;48.784;9.198;2023-11-18T16:20:15;7.80;99.90
11934;DHT22;6026;48.784;9.198;2023-11-18T16:22:42;7.90;99.90
11934;DHT22;6026;48.784;9.198;2023-11-18T16:25:08;7.80;99.90
11934;DHT22;6026;48.784;9.198;2023-11-18T16:27:35;7.80;99.90
11934;DHT22;6026;48.784;9.198;2023-11-18T16:30:02;7.80;99.90
11934;DHT22;6026;48.784;9.198;2023-11-18T16:32:28;7.80;99.90
11934;DHT22;6026;48.784;9.198;2023-11-18T16:34:53;7.80;99.90
11934;DHT22;6026;48.784;9.198;2023-11-18T16:37:19;7.80;99.90
11934;DHT22;6026;48.784;9.198;2023-11-18T16:39:45;7.80;99.90